sensor_id;sensor_type;location;lat;lon;timestamp;P1;durP1;ratioP1;P2;durP2;ratioP2
65358;SDS011;52491;45.900;6.346;2022-12-18T00:00:28;6.35;;;5.20;;
65358;SDS011;52491;45.900;6.346;2022-12-18T00:02:55;6.15;;;4.82;;
65358;SDS011;52491;45.900;6.346;2022-12-18T00:05:20;5.25;;;4.75;;
65358;SDS011;52491;45.900;6.346;2022-12-18T00:07:46;5.82;;;5.20;;
65358;SDS011;52491;45.900;6.346;2022-12-18T00:10:12;6.05;;;5.45;;
65358;SDS011;52491;45.900;6.346;2022-12-18T00:12:37;5.35;;;4.57;;
65358;SDS011;52491;45.900;6.346;2022-12-18T00:15:03;6.35;;;5.10;;
65358;SDS011;52491;45.900;6.346;2022-12-18T00:17:29;7.25;;;5.72;;
65358;SDS011;52491;45.900;6.346;2022-12-18T00:19:55;5.47;;;4.45;;
65358;SDS011;52491;45.900;6.346;2022-12-18T00:22:20;6.20;;;5.15;;
65358;SDS011;52491;45.900;6.346;2022-12-18T00:24:46;5.38;;;4.63;;
65358;SDS011;52491;45.900;6.346;2022-12-18T00:27:12;6.00;;;4.90;;
65358;SDS011;52491;45.900;6.346;2022-12-18T00:29:37;5.90;;;4.60;;
65358;SDS011;52491;45.900;6.346;2022-12-18T00:32:06;6.32;;;5.18;;
65358;SDS011;52491;45.900;6.346;2022-12-18T00:34:31;6.57;;;5.22;;
65358;SDS011;52491;45.900;6.346;2022-12-18T00:36:57;4.63;;;4.13;;
65358;SDS011;52491;45.900;6.346;2022-12-18T00:39:22;6.28;;;5.50;;
65358;SDS011;52491;45.900;6.346;2022-12-18T00:41:48;6.88;;;5.47;;
65358;SDS011;52491;45.900;6.346;2022-12-18T00:44:32;6.03;;;5.10;;
65358;SDS011;52491;45.900;6.346;2022-12-18T00:46:58;7.10;;;5.68;;
65358;SDS011;52491;45.900;6.346;2022-12-18T00:49:23;6.18;;;5.20;;
65358;SDS011;52491;45.900;6.346;2022-12-18T00:51:49;6.80;;;5.30;;
65358;SDS011;52491;45.900;6.346;2022-12-18T00:54:15;5.43;;;4.88;;
65358;SDS011;52491;45.900;6.346;2022-12-18T00:56:42;5.07;;;4.57;;
65358;SDS011;52491;45.900;6.346;2022-12-18T00:59:08;5.22;;;4.72;;
65358;SDS011;52491;45.900;6.346;2022-12-18T01:01:34;5.53;;;4.57;;
65358;SDS011;52491;45.900;6.346;2022-12-18T01:04:00;5.22;;;4.68;;
65358;SDS011;52491;45.900;6.346;2022-12-18T01:06:27;5.82;;;5.20;;
65358;SDS011;52491;45.900;6.346;2022-12-18T01:08:53;4.40;;;4.00;;
65358;SDS011;52491;45.900;6.346;2022-12-18T01:11:20;5.22;;;4.70;;
65358;SDS011;52491;45.900;6.346;2022-12-18T01:13:46;5.25;;;4.57;;
65358;SDS011;52491;45.900;6.346;2022-12-18T01:16:13;7.38;;;5.13;;
65358;SDS011;52491;45.900;6.346;2022-12-18T01:18:40;6.38;;;5.10;;
65358;SDS011;52491;45.900;6.346;2022-12-18T01:21:09;6.85;;;4.45;;
65358;SDS011;52491;45.900;6.346;2022-12-18T01:23:37;6.55;;;5.10;;
65358;SDS011;52491;45.900;6.346;2022-12-18T01:26:08;4.35;;;3.95;;
65358;SDS011;52491;45.900;6.346;2022-12-18T01:28:39;5.38;;;4.78;;
65358;SDS011;52491;45.900;6.346;2022-12-18T01:33:44;4.80;;;4.30;;
65358;SDS011;52491;45.900;6.346;2022-12-18T01:36:25;5.30;;;4.45;;
65358;SDS011;52491;45.900;6.346;2022-12-18T01:38:52;5.72;;;4.72;;
65358;SDS011;52491;45.900;6.346;2022-12-18T01:41:26;6.10;;;5.05;;
65358;SDS011;52491;45.900;6.346;2022-12-18T01:47:15;4.80;;;4.30;;
65358;SDS011;52491;45.900;6.346;2022-12-18T01:49:46;5.47;;;3.95;;
65358;SDS011;52491;45.900;6.346;2022-12-18T01:52:13;5.00;;;4.40;;
65358;SDS011;52491;45.900;6.346;2022-12-18T01:54:38;4.63;;;3.85;;
65358;SDS011;52491;45.900;6.346;2022-12-18T01:57:04;4.85;;;4.35;;
65358;SDS011;52491;45.900;6.346;2022-12-18T01:59:31;4.43;;;3.85;;
65358;SDS011;52491;45.900;6.346;2022-12-18T02:01:59;4.78;;;4.07;;
65358;SDS011;52491;45.900;6.346;2022-12-18T02:04:26;4.88;;;4.38;;
65358;SDS011;52491;45.900;6.346;2022-12-18T02:06:59;5.65;;;4.28;;
65358;SDS011;52491;45.900;6.346;2022-12-18T02:09:36;5.93;;;4.32;;
65358;SDS011;52491;45.900;6.346;2022-12-18T02:14:55;5.13;;;4.28;;
65358;SDS011;52491;45.900;6.346;2022-12-18T02:17:29;5.75;;;4.50;;
65358;SDS011;52491;45.900;6.346;2022-12-18T02:20:11;5.75;;;4.45;;
65358;SDS011;52491;45.900;6.346;2022-12-18T02:28:23;4.97;;;4.45;;
65358;SDS011;52491;45.900;6.346;2022-12-18T02:30:53;4.75;;;3.83;;
65358;SDS011;52491;45.900;6.346;2022-12-18T02:33:23;5.20;;;4.40;;
65358;SDS011;52491;45.900;6.346;2022-12-18T02:35:52;5.03;;;4.47;;
65358;SDS011;52491;45.900;6.346;2022-12-18T02:38:20;4.38;;;3.97;;
65358;SDS011;52491;45.900;6.346;2022-12-18T02:40:47;3.92;;;3.47;;
65358;SDS011;52491;45.900;6.346;2022-12-18T02:43:15;4.95;;;4.43;;
65358;SDS011;52491;45.900;6.346;2022-12-18T02:45:48;4.50;;;3.75;;
65358;SDS011;52491;45.900;6.346;2022-12-18T02:48:22;3.85;;;3.47;;
65358;SDS011;52491;45.900;6.346;2022-12-18T02:50:57;3.60;;;3.22;;
65358;SDS011;52491;45.900;6.346;2022-12-18T02:56:20;4.03;;;3.60;;
65358;SDS011;52491;45.900;6.346;2022-12-18T02:59:05;4.70;;;3.83;;
65358;SDS011;52491;45.900;6.346;2022-12-18T03:02:05;4.43;;;3.65;;
65358;SDS011;52491;45.900;6.346;2022-12-18T03:04:50;4.45;;;3.28;;
65358;SDS011;52491;45.900;6.346;2022-12-18T03:07:19;3.40;;;3.10;;
65358;SDS011;52491;45.900;6.346;2022-12-18T03:09:51;3.92;;;3.40;;
65358;SDS011;52491;45.900;6.346;2022-12-18T03:12:21;4.45;;;3.42;;
65358;SDS011;52491;45.900;6.346;2022-12-18T03:15:08;4.45;;;2.92;;
65358;SDS011;52491;45.900;6.346;2022-12-18T03:17:40;4.65;;;3.05;;
65358;SDS011;52491;45.900;6.346;2022-12-18T03:20:14;3.17;;;2.88;;
65358;SDS011;52491;45.900;6.346;2022-12-18T03:22:42;4.30;;;2.95;;
65358;SDS011;52491;45.900;6.346;2022-12-18T03:25:13;6.32;;;3.67;;
65358;SDS011;52491;45.900;6.346;2022-12-18T03:27:46;4.55;;;2.78;;
65358;SDS011;52491;45.900;6.346;2022-12-18T03:30:16;5.07;;;2.85;;
65358;SDS011;52491;45.900;6.346;2022-12-18T03:32:53;5.57;;;3.30;;
65358;SDS011;52491;45.900;6.346;2022-12-18T03:35:36;3.85;;;3.38;;
65358;SDS011;52491;45.900;6.346;2022-12-18T03:38:06;2.97;;;2.35;;
65358;SDS011;52491;45.900;6.346;2022-12-18T03:40:53;4.78;;;2.45;;
65358;SDS011;52491;45.900;6.346;2022-12-18T03:46:09;3.10;;;2.67;;
65358;SDS011;52491;45.900;6.346;2022-12-18T03:48:43;4.22;;;3.15;;
65358;SDS011;52491;45.900;6.346;2022-12-18T03:51:21;2.90;;;2.45;;
65358;SDS011;52491;45.900;6.346;2022-12-18T03:56:20;3.25;;;2.55;;
65358;SDS011;52491;45.900;6.346;2022-12-18T03:58:49;2.88;;;2.35;;
65358;SDS011;52491;45.900;6.346;2022-12-18T04:01:17;2.97;;;2.00;;
65358;SDS011;52491;45.900;6.346;2022-12-18T04:03:47;3.17;;;2.00;;
65358;SDS011;52491;45.900;6.346;2022-12-18T04:06:15;3.53;;;2.10;;
65358;SDS011;52491;45.900;6.346;2022-12-18T04:08:42;5.70;;;2.65;;
65358;SDS011;52491;45.900;6.346;2022-12-18T04:11:08;5.75;;;2.13;;
65358;SDS011;52491;45.900;6.346;2022-12-18T04:13:35;2.88;;;2.58;;
65358;SDS011;52491;45.900;6.346;2022-12-18T04:16:02;2.45;;;2.25;;
65358;SDS011;52491;45.900;6.346;2022-12-18T04:18:28;6.28;;;2.25;;
65358;SDS011;52491;45.900;6.346;2022-12-18T04:20:53;3.15;;;2.22;;
65358;SDS011;52491;45.900;6.346;2022-12-18T04:23:19;2.10;;;1.85;;
65358;SDS011;52491;45.900;6.346;2022-12-18T04:25:46;2.20;;;1.70;;
65358;SDS011;52491;45.900;6.346;2022-12-18T04:28:13;3.00;;;1.55;;
65358;SDS011;52491;45.900;6.346;2022-12-18T04:30:38;3.05;;;1.92;;
65358;SDS011;52491;45.900;6.346;2022-12-18T04:33:08;3.15;;;1.60;;
65358;SDS011;52491;45.900;6.346;2022-12-18T04:35:38;2.08;;;1.88;;
65358;SDS011;52491;45.900;6.346;2022-12-18T04:38:05;1.40;;;1.30;;
65358;SDS011;52491;45.900;6.346;2022-12-18T04:40:33;3.05;;;1.90;;
65358;SDS011;52491;45.900;6.346;2022-12-18T04:43:02;2.28;;;1.73;;
65358;SDS011;52491;45.900;6.346;2022-12-18T04:45:28;4.05;;;2.08;;
65358;SDS011;52491;45.900;6.346;2022-12-18T04:47:54;1.88;;;1.65;;
65358;SDS011;52491;45.900;6.346;2022-12-18T04:50:22;2.30;;;2.10;;
65358;SDS011;52491;45.900;6.346;2022-12-18T04:52:48;2.15;;;1.60;;
65358;SDS011;52491;45.900;6.346;2022-12-18T04:55:14;1.63;;;1.42;;
65358;SDS011;52491;45.900;6.346;2022-12-18T04:57:39;2.90;;;1.67;;
65358;SDS011;52491;45.900;6.346;2022-12-18T05:00:05;2.58;;;1.70;;
65358;SDS011;52491;45.900;6.346;2022-12-18T05:02:31;1.30;;;1.20;;
65358;SDS011;52491;45.900;6.346;2022-12-18T05:04:57;1.70;;;1.60;;
65358;SDS011;52491;45.900;6.346;2022-12-18T05:07:23;2.65;;;1.88;;
65358;SDS011;52491;45.900;6.346;2022-12-18T05:09:48;1.70;;;1.50;;
65358;SDS011;52491;45.900;6.346;2022-12-18T05:12:14;1.90;;;1.30;;
65358;SDS011;52491;45.900;6.346;2022-12-18T05:14:40;2.17;;;1.17;;
65358;SDS011;52491;45.900;6.346;2022-12-18T05:17:05;2.33;;;1.70;;
65358;SDS011;52491;45.900;6.346;2022-12-18T05:19:31;1.70;;;1.60;;
65358;SDS011;52491;45.900;6.346;2022-12-18T05:21:56;2.60;;;1.90;;
65358;SDS011;52491;45.900;6.346;2022-12-18T05:24:22;3.15;;;2.05;;
65358;SDS011;52491;45.900;6.346;2022-12-18T05:26:48;3.65;;;2.30;;
65358;SDS011;52491;45.900;6.346;2022-12-18T05:29:14;2.08;;;1.65;;
65358;SDS011;52491;45.900;6.346;2022-12-18T05:31:40;2.10;;;1.60;;
65358;SDS011;52491;45.900;6.346;2022-12-18T05:34:05;2.45;;;2.10;;
65358;SDS011;52491;45.900;6.346;2022-12-18T05:36:31;1.92;;;1.42;;
65358;SDS011;52491;45.900;6.346;2022-12-18T05:38:57;2.08;;;1.58;;
65358;SDS011;52491;45.900;6.346;2022-12-18T05:41:23;2.30;;;1.40;;
65358;SDS011;52491;45.900;6.346;2022-12-18T05:43:48;2.53;;;1.10;;
65358;SDS011;52491;45.900;6.346;2022-12-18T05:46:15;1.52;;;1.42;;
65358;SDS011;52491;45.900;6.346;2022-12-18T05:48:43;1.85;;;1.42;;
65358;SDS011;52491;45.900;6.346;2022-12-18T05:51:10;2.83;;;1.40;;
65358;SDS011;52491;45.900;6.346;2022-12-18T05:53:40;3.35;;;1.40;;
65358;SDS011;52491;45.900;6.346;2022-12-18T05:56:07;3.05;;;1.60;;
65358;SDS011;52491;45.900;6.346;2022-12-18T05:58:35;3.95;;;1.92;;
65358;SDS011;52491;45.900;6.346;2022-12-18T06:01:08;3.53;;;1.90;;
65358;SDS011;52491;45.900;6.346;2022-12-18T06:03:38;1.95;;;1.67;;
65358;SDS011;52491;45.900;6.346;2022-12-18T06:06:12;1.75;;;1.65;;
65358;SDS011;52491;45.900;6.346;2022-12-18T06:08:39;2.58;;;1.73;;
65358;SDS011;52491;45.900;6.346;2022-12-18T06:11:04;1.52;;;1.33;;
65358;SDS011;52491;45.900;6.346;2022-12-18T06:13:30;2.13;;;1.70;;
65358;SDS011;52491;45.900;6.346;2022-12-18T06:15:56;2.10;;;1.63;;
65358;SDS011;52491;45.900;6.346;2022-12-18T06:18:21;3.60;;;1.63;;
65358;SDS011;52491;45.900;6.346;2022-12-18T06:20:54;1.80;;;1.70;;
65358;SDS011;52491;45.900;6.346;2022-12-18T06:23:20;2.35;;;1.58;;
65358;SDS011;52491;45.900;6.346;2022-12-18T06:25:46;2.92;;;2.05;;
65358;SDS011;52491;45.900;6.346;2022-12-18T06:28:12;2.05;;;1.60;;
65358;SDS011;52491;45.900;6.346;2022-12-18T06:30:37;2.08;;;1.55;;
65358;SDS011;52491;45.900;6.346;2022-12-18T06:33:03;3.40;;;1.83;;
65358;SDS011;52491;45.900;6.346;2022-12-18T06:35:28;2.25;;;2.03;;
65358;SDS011;52491;45.900;6.346;2022-12-18T06:37:54;3.00;;;1.70;;
65358;SDS011;52491;45.900;6.346;2022-12-18T06:40:20;2.03;;;1.73;;
65358;SDS011;52491;45.900;6.346;2022-12-18T06:42:46;1.95;;;1.67;;
65358;SDS011;52491;45.900;6.346;2022-12-18T06:45:11;3.80;;;2.30;;
65358;SDS011;52491;45.900;6.346;2022-12-18T06:47:42;3.50;;;1.88;;
65358;SDS011;52491;45.900;6.346;2022-12-18T06:50:08;2.75;;;2.40;;
65358;SDS011;52491;45.900;6.346;2022-12-18T06:52:33;2.53;;;2.00;;
65358;SDS011;52491;45.900;6.346;2022-12-18T06:54:59;2.33;;;1.83;;
65358;SDS011;52491;45.900;6.346;2022-12-18T06:57:25;2.65;;;2.03;;
65358;SDS011;52491;45.900;6.346;2022-12-18T06:59:51;2.88;;;2.00;;
65358;SDS011;52491;45.900;6.346;2022-12-18T07:02:17;3.35;;;2.20;;
65358;SDS011;52491;45.900;6.346;2022-12-18T07:06:12;2.63;;;2.13;;
65358;SDS011;52491;45.900;6.346;2022-12-18T07:08:40;2.75;;;2.10;;
65358;SDS011;52491;45.900;6.346;2022-12-18T07:11:05;6.03;;;2.72;;
65358;SDS011;52491;45.900;6.346;2022-12-18T07:13:31;6.35;;;3.05;;
65358;SDS011;52491;45.900;6.346;2022-12-18T07:16:03;4.60;;;1.77;;
65358;SDS011;52491;45.900;6.346;2022-12-18T07:18:32;6.25;;;2.78;;
65358;SDS011;52491;45.900;6.346;2022-12-18T07:20:57;3.20;;;2.35;;
65358;SDS011;52491;45.900;6.346;2022-12-18T07:23:23;2.83;;;2.53;;
65358;SDS011;52491;45.900;6.346;2022-12-18T07:25:48;3.75;;;2.45;;
65358;SDS011;52491;45.900;6.346;2022-12-18T07:28:14;4.35;;;2.50;;
65358;SDS011;52491;45.900;6.346;2022-12-18T07:30:39;2.65;;;2.17;;
65358;SDS011;52491;45.900;6.346;2022-12-18T07:33:05;4.15;;;2.72;;
65358;SDS011;52491;45.900;6.346;2022-12-18T07:35:33;4.38;;;2.40;;
65358;SDS011;52491;45.900;6.346;2022-12-18T07:38:02;7.47;;;2.75;;
65358;SDS011;52491;45.900;6.346;2022-12-18T07:40:28;4.95;;;3.03;;
65358;SDS011;52491;45.900;6.346;2022-12-18T07:42:55;3.78;;;2.78;;
65358;SDS011;52491;45.900;6.346;2022-12-18T07:45:21;5.60;;;3.08;;
65358;SDS011;52491;45.900;6.346;2022-12-18T07:47:46;7.20;;;4.10;;
65358;SDS011;52491;45.900;6.346;2022-12-18T07:50:12;7.93;;;3.20;;
65358;SDS011;52491;45.900;6.346;2022-12-18T07:52:38;12.18;;;3.35;;
65358;SDS011;52491;45.900;6.346;2022-12-18T07:55:04;8.27;;;3.00;;
65358;SDS011;52491;45.900;6.346;2022-12-18T07:57:30;5.13;;;2.58;;
65358;SDS011;52491;45.900;6.346;2022-12-18T07:59:56;3.65;;;3.13;;
65358;SDS011;52491;45.900;6.346;2022-12-18T08:02:21;4.43;;;3.47;;
65358;SDS011;52491;45.900;6.346;2022-12-18T08:04:47;7.63;;;3.53;;
65358;SDS011;52491;45.900;6.346;2022-12-18T08:07:12;5.88;;;3.72;;
65358;SDS011;52491;45.900;6.346;2022-12-18T08:09:38;13.57;;;6.10;;
65358;SDS011;52491;45.900;6.346;2022-12-18T08:12:03;6.97;;;6.13;;
65358;SDS011;52491;45.900;6.346;2022-12-18T08:14:29;10.48;;;6.32;;
65358;SDS011;52491;45.900;6.346;2022-12-18T08:16:55;8.32;;;5.80;;
65358;SDS011;52491;45.900;6.346;2022-12-18T08:19:21;10.10;;;6.30;;
65358;SDS011;52491;45.900;6.346;2022-12-18T08:21:46;9.07;;;5.07;;
65358;SDS011;52491;45.900;6.346;2022-12-18T08:24:12;8.80;;;5.60;;
65358;SDS011;52491;45.900;6.346;2022-12-18T08:26:37;10.70;;;5.63;;
65358;SDS011;52491;45.900;6.346;2022-12-18T08:29:03;10.15;;;5.53;;
65358;SDS011;52491;45.900;6.346;2022-12-18T08:31:29;6.85;;;4.93;;
65358;SDS011;52491;45.900;6.346;2022-12-18T08:33:56;9.18;;;5.50;;
65358;SDS011;52491;45.900;6.346;2022-12-18T08:36:22;11.02;;;5.95;;
65358;SDS011;52491;45.900;6.346;2022-12-18T08:38:48;10.40;;;5.57;;
65358;SDS011;52491;45.900;6.346;2022-12-18T08:41:15;16.38;;;5.68;;
65358;SDS011;52491;45.900;6.346;2022-12-18T08:43:42;10.63;;;6.07;;
65358;SDS011;52491;45.900;6.346;2022-12-18T08:46:26;15.40;;;5.47;;
65358;SDS011;52491;45.900;6.346;2022-12-18T08:48:56;11.07;;;5.90;;
65358;SDS011;52491;45.900;6.346;2022-12-18T08:51:21;12.52;;;6.05;;
65358;SDS011;52491;45.900;6.346;2022-12-18T08:53:47;12.15;;;6.97;;
65358;SDS011;52491;45.900;6.346;2022-12-18T08:56:13;12.15;;;6.22;;
65358;SDS011;52491;45.900;6.346;2022-12-18T08:58:40;10.68;;;6.20;;
65358;SDS011;52491;45.900;6.346;2022-12-18T09:01:07;12.48;;;5.70;;
65358;SDS011;52491;45.900;6.346;2022-12-18T09:03:34;10.68;;;5.22;;
65358;SDS011;52491;45.900;6.346;2022-12-18T09:06:01;10.25;;;4.40;;
65358;SDS011;52491;45.900;6.346;2022-12-18T09:08:26;8.48;;;5.05;;
65358;SDS011;52491;45.900;6.346;2022-12-18T09:10:53;12.20;;;5.85;;
65358;SDS011;52491;45.900;6.346;2022-12-18T09:13:20;13.38;;;5.45;;
65358;SDS011;52491;45.900;6.346;2022-12-18T09:15:46;19.23;;;5.80;;
65358;SDS011;52491;45.900;6.346;2022-12-18T09:18:15;9.40;;;5.38;;
65358;SDS011;52491;45.900;6.346;2022-12-18T09:20:41;11.35;;;5.70;;
65358;SDS011;52491;45.900;6.346;2022-12-18T09:23:07;11.82;;;5.43;;
65358;SDS011;52491;45.900;6.346;2022-12-18T09:25:34;9.20;;;5.78;;
65358;SDS011;52491;45.900;6.346;2022-12-18T09:28:04;9.13;;;4.95;;
65358;SDS011;52491;45.900;6.346;2022-12-18T09:30:43;8.25;;;5.35;;
65358;SDS011;52491;45.900;6.346;2022-12-18T09:33:11;7.53;;;4.78;;
65358;SDS011;52491;45.900;6.346;2022-12-18T09:35:38;11.10;;;5.35;;
65358;SDS011;52491;45.900;6.346;2022-12-18T09:38:04;9.25;;;4.88;;
65358;SDS011;52491;45.900;6.346;2022-12-18T09:40:34;12.68;;;6.70;;
65358;SDS011;52491;45.900;6.346;2022-12-18T09:43:04;12.50;;;6.30;;
65358;SDS011;52491;45.900;6.346;2022-12-18T09:45:42;11.27;;;7.85;;
65358;SDS011;52491;45.900;6.346;2022-12-18T09:48:15;9.48;;;5.47;;
65358;SDS011;52491;45.900;6.346;2022-12-18T09:50:46;8.98;;;6.47;;
65358;SDS011;52491;45.900;6.346;2022-12-18T09:53:19;7.25;;;5.35;;
65358;SDS011;52491;45.900;6.346;2022-12-18T09:55:48;9.57;;;7.13;;
65358;SDS011;52491;45.900;6.346;2022-12-18T10:01:00;10.75;;;5.72;;
65358;SDS011;52491;45.900;6.346;2022-12-18T10:03:26;7.68;;;5.20;;
65358;SDS011;52491;45.900;6.346;2022-12-18T10:06:06;8.98;;;6.03;;
65358;SDS011;52491;45.900;6.346;2022-12-18T10:08:46;12.75;;;6.22;;
65358;SDS011;52491;45.900;6.346;2022-12-18T10:14:19;7.93;;;5.47;;
65358;SDS011;52491;45.900;6.346;2022-12-18T10:25:13;6.25;;;5.18;;
65358;SDS011;52491;45.900;6.346;2022-12-18T10:27:55;5.85;;;4.97;;
65358;SDS011;52491;45.900;6.346;2022-12-18T10:30:25;6.63;;;5.47;;
65358;SDS011;52491;45.900;6.346;2022-12-18T10:32:51;9.10;;;5.18;;
65358;SDS011;52491;45.900;6.346;2022-12-18T10:35:22;4.85;;;4.32;;
65358;SDS011;52491;45.900;6.346;2022-12-18T10:43:20;5.50;;;4.60;;
65358;SDS011;52491;45.900;6.346;2022-12-18T10:51:31;5.65;;;4.78;;
65358;SDS011;52491;45.900;6.346;2022-12-18T10:54:00;5.18;;;4.28;;
65358;SDS011;52491;45.900;6.346;2022-12-18T10:56:29;11.43;;;5.45;;
65358;SDS011;52491;45.900;6.346;2022-12-18T10:59:01;4.93;;;4.43;;
65358;SDS011;52491;45.900;6.346;2022-12-18T11:01:27;9.38;;;5.22;;
65358;SDS011;52491;45.900;6.346;2022-12-18T11:06:20;6.97;;;4.10;;
65358;SDS011;52491;45.900;6.346;2022-12-18T11:09:00;4.82;;;4.32;;
65358;SDS011;52491;45.900;6.346;2022-12-18T11:11:27;10.25;;;5.43;;
65358;SDS011;52491;45.900;6.346;2022-12-18T11:14:03;12.18;;;4.72;;
65358;SDS011;52491;45.900;6.346;2022-12-18T11:16:36;5.70;;;3.90;;
65358;SDS011;52491;45.900;6.346;2022-12-18T11:19:28;5.63;;;4.13;;
65358;SDS011;52491;45.900;6.346;2022-12-18T11:21:58;4.78;;;3.95;;
65358;SDS011;52491;45.900;6.346;2022-12-18T11:24:34;10.07;;;3.83;;
65358;SDS011;52491;45.900;6.346;2022-12-18T11:27:02;6.25;;;3.47;;
65358;SDS011;52491;45.900;6.346;2022-12-18T11:29:34;7.43;;;4.00;;
65358;SDS011;52491;45.900;6.346;2022-12-18T11:34:39;4.95;;;3.70;;
65358;SDS011;52491;45.900;6.346;2022-12-18T11:37:10;7.20;;;3.78;;
65358;SDS011;52491;45.900;6.346;2022-12-18T11:39:50;7.13;;;3.28;;
65358;SDS011;52491;45.900;6.346;2022-12-18T11:42:21;6.00;;;3.22;;
65358;SDS011;52491;45.900;6.346;2022-12-18T11:45:01;3.50;;;2.90;;
65358;SDS011;52491;45.900;6.346;2022-12-18T11:52:58;3.80;;;3.08;;
65358;SDS011;52491;45.900;6.346;2022-12-18T11:55:28;3.40;;;2.60;;
65358;SDS011;52491;45.900;6.346;2022-12-18T12:03:53;6.32;;;3.47;;
65358;SDS011;52491;45.900;6.346;2022-12-18T12:09:33;4.45;;;2.35;;
65358;SDS011;52491;45.900;6.346;2022-12-18T12:12:38;4.50;;;2.70;;
65358;SDS011;52491;45.900;6.346;2022-12-18T12:26:11;6.32;;;2.88;;
65358;SDS011;52491;45.900;6.346;2022-12-18T12:28:59;6.90;;;2.67;;
65358;SDS011;52491;45.900;6.346;2022-12-18T12:34:31;5.53;;;2.42;;
65358;SDS011;52491;45.900;6.346;2022-12-18T12:40:31;6.40;;;2.40;;
65358;SDS011;52491;45.900;6.346;2022-12-18T12:43:04;7.43;;;2.78;;
65358;SDS011;52491;45.900;6.346;2022-12-18T12:46:05;4.13;;;2.67;;
65358;SDS011;52491;45.900;6.346;2022-12-18T12:50:58;2.92;;;2.33;;
65358;SDS011;52491;45.900;6.346;2022-12-18T12:53:32;3.00;;;2.63;;
65358;SDS011;52491;45.900;6.346;2022-12-18T12:56:01;4.07;;;3.53;;
65358;SDS011;52491;45.900;6.346;2022-12-18T15:56:45;8.52;;;5.80;;
65358;SDS011;52491;45.900;6.346;2022-12-18T15:59:29;20.45;;;6.20;;
65358;SDS011;52491;45.900;6.346;2022-12-18T16:01:55;9.70;;;5.55;;
65358;SDS011;52491;45.900;6.346;2022-12-18T16:04:21;12.38;;;5.05;;
65358;SDS011;52491;45.900;6.346;2022-12-18T16:06:47;10.85;;;5.43;;
65358;SDS011;52491;45.900;6.346;2022-12-18T16:09:14;14.88;;;6.07;;
65358;SDS011;52491;45.900;6.346;2022-12-18T16:11:41;20.08;;;8.25;;
65358;SDS011;52491;45.900;6.346;2022-12-18T16:16:45;16.58;;;9.02;;
65358;SDS011;52491;45.900;6.346;2022-12-18T16:19:12;10.85;;;6.53;;
65358;SDS011;52491;45.900;6.346;2022-12-18T16:21:38;15.13;;;7.25;;
65358;SDS011;52491;45.900;6.346;2022-12-18T16:24:04;14.68;;;7.57;;
65358;SDS011;52491;45.900;6.346;2022-12-18T16:26:30;12.55;;;7.65;;
65358;SDS011;52491;45.900;6.346;2022-12-18T16:28:56;12.15;;;7.07;;
65358;SDS011;52491;45.900;6.346;2022-12-18T16:31:21;10.15;;;7.05;;
65358;SDS011;52491;45.900;6.346;2022-12-18T16:33:47;12.38;;;7.55;;
65358;SDS011;52491;45.900;6.346;2022-12-18T16:36:13;27.23;;;19.15;;
65358;SDS011;52491;45.900;6.346;2022-12-18T16:38:38;18.10;;;11.23;;
65358;SDS011;52491;45.900;6.346;2022-12-18T16:41:19;20.98;;;14.10;;
65358;SDS011;52491;45.900;6.346;2022-12-18T16:44:02;13.13;;;9.45;;
65358;SDS011;52491;45.900;6.346;2022-12-18T16:46:29;16.42;;;10.35;;
65358;SDS011;52491;45.900;6.346;2022-12-18T16:48:56;13.88;;;10.32;;
65358;SDS011;52491;45.900;6.346;2022-12-18T16:51:22;16.83;;;10.40;;
65358;SDS011;52491;45.900;6.346;2022-12-18T16:53:47;13.73;;;9.80;;
65358;SDS011;52491;45.900;6.346;2022-12-18T16:56:13;13.77;;;10.65;;
65358;SDS011;52491;45.900;6.346;2022-12-18T16:58:39;13.25;;;9.70;;
65358;SDS011;52491;45.900;6.346;2022-12-18T17:01:07;12.52;;;9.02;;
65358;SDS011;52491;45.900;6.346;2022-12-18T17:03:34;21.52;;;10.75;;
65358;SDS011;52491;45.900;6.346;2022-12-18T17:06:03;15.55;;;10.13;;
65358;SDS011;52491;45.900;6.346;2022-12-18T17:08:29;11.25;;;9.38;;
65358;SDS011;52491;45.900;6.346;2022-12-18T17:10:55;15.55;;;10.73;;
65358;SDS011;52491;45.900;6.346;2022-12-18T17:13:21;12.88;;;9.25;;
65358;SDS011;52491;45.900;6.346;2022-12-18T17:15:49;15.73;;;9.35;;
65358;SDS011;52491;45.900;6.346;2022-12-18T17:18:15;15.02;;;9.80;;
65358;SDS011;52491;45.900;6.346;2022-12-18T17:20:41;13.40;;;8.80;;
65358;SDS011;52491;45.900;6.346;2022-12-18T17:23:06;11.93;;;8.85;;
65358;SDS011;52491;45.900;6.346;2022-12-18T17:25:32;13.00;;;9.93;;
65358;SDS011;52491;45.900;6.346;2022-12-18T17:27:57;12.52;;;8.48;;
65358;SDS011;52491;45.900;6.346;2022-12-18T17:30:23;12.23;;;9.07;;
65358;SDS011;52491;45.900;6.346;2022-12-18T17:32:49;12.90;;;9.52;;
65358;SDS011;52491;45.900;6.346;2022-12-18T17:35:15;11.98;;;9.02;;
65358;SDS011;52491;45.900;6.346;2022-12-18T17:37:41;9.88;;;7.97;;
65358;SDS011;52491;45.900;6.346;2022-12-18T17:40:06;10.20;;;7.55;;
65358;SDS011;52491;45.900;6.346;2022-12-18T17:42:32;14.57;;;8.95;;
65358;SDS011;52491;45.900;6.346;2022-12-18T17:44:58;13.15;;;8.40;;
65358;SDS011;52491;45.900;6.346;2022-12-18T17:47:23;11.65;;;8.52;;
65358;SDS011;52491;45.900;6.346;2022-12-18T17:49:49;11.55;;;8.38;;
65358;SDS011;52491;45.900;6.346;2022-12-18T17:52:15;14.43;;;8.55;;
65358;SDS011;52491;45.900;6.346;2022-12-18T17:54:41;10.13;;;7.43;;
65358;SDS011;52491;45.900;6.346;2022-12-18T17:57:08;10.63;;;8.10;;
65358;SDS011;52491;45.900;6.346;2022-12-18T17:59:34;10.70;;;7.78;;
65358;SDS011;52491;45.900;6.346;2022-12-18T18:02:00;10.88;;;8.27;;
65358;SDS011;52491;45.900;6.346;2022-12-18T18:04:26;10.90;;;8.73;;
65358;SDS011;52491;45.900;6.346;2022-12-18T18:06:51;11.15;;;8.27;;
65358;SDS011;52491;45.900;6.346;2022-12-18T18:09:17;10.88;;;8.77;;
65358;SDS011;52491;45.900;6.346;2022-12-18T18:11:43;10.55;;;8.35;;
65358;SDS011;52491;45.900;6.346;2022-12-18T18:14:28;17.88;;;9.20;;
65358;SDS011;52491;45.900;6.346;2022-12-18T18:16:54;13.02;;;9.95;;
65358;SDS011;52491;45.900;6.346;2022-12-18T18:19:20;9.80;;;8.70;;
65358;SDS011;52491;45.900;6.346;2022-12-18T18:21:48;17.05;;;8.65;;
65358;SDS011;52491;45.900;6.346;2022-12-18T18:24:17;18.08;;;10.77;;
65358;SDS011;52491;45.900;6.346;2022-12-18T18:26:43;13.82;;;9.95;;
65358;SDS011;52491;45.900;6.346;2022-12-18T18:29:14;14.13;;;10.63;;
65358;SDS011;52491;45.900;6.346;2022-12-18T18:31:41;20.58;;;11.05;;
65358;SDS011;52491;45.900;6.346;2022-12-18T18:34:07;18.02;;;11.70;;
65358;SDS011;52491;45.900;6.346;2022-12-18T18:36:38;23.58;;;10.38;;
65358;SDS011;52491;45.900;6.346;2022-12-18T18:39:03;15.68;;;11.45;;
65358;SDS011;52491;45.900;6.346;2022-12-18T18:41:29;16.48;;;10.93;;
65358;SDS011;52491;45.900;6.346;2022-12-18T18:43:55;20.55;;;12.20;;
65358;SDS011;52491;45.900;6.346;2022-12-18T18:46:22;13.88;;;11.45;;
65358;SDS011;52491;45.900;6.346;2022-12-18T18:48:48;26.83;;;14.93;;
65358;SDS011;52491;45.900;6.346;2022-12-18T18:51:14;32.25;;;12.70;;
65358;SDS011;52491;45.900;6.346;2022-12-18T18:53:43;29.08;;;13.50;;
65358;SDS011;52491;45.900;6.346;2022-12-18T18:56:10;22.63;;;12.70;;
65358;SDS011;52491;45.900;6.346;2022-12-18T18:58:38;30.73;;;13.75;;
65358;SDS011;52491;45.900;6.346;2022-12-18T19:01:06;28.27;;;13.55;;
65358;SDS011;52491;45.900;6.346;2022-12-18T19:03:34;33.95;;;15.23;;
65358;SDS011;52491;45.900;6.346;2022-12-18T19:06:02;31.70;;;14.95;;
65358;SDS011;52491;45.900;6.346;2022-12-18T19:08:30;36.03;;;15.15;;
65358;SDS011;52491;45.900;6.346;2022-12-18T19:10:58;25.85;;;14.90;;
65358;SDS011;52491;45.900;6.346;2022-12-18T19:13:30;22.42;;;13.50;;
65358;SDS011;52491;45.900;6.346;2022-12-18T19:16:02;28.60;;;14.15;;
65358;SDS011;52491;45.900;6.346;2022-12-18T19:18:31;32.42;;;16.40;;
65358;SDS011;52491;45.900;6.346;2022-12-18T19:21:04;28.70;;;15.57;;